createdAt,value
2019-03-27T00:01:17.263Z,7.40
2019-03-27T00:03:45.307Z,7.39
2019-03-27T00:06:13.039Z,7.36
2019-03-27T00:08:41.149Z,7.33
2019-03-27T00:11:08.872Z,7.26
2019-03-27T00:13:36.534Z,7.17
2019-03-27T00:16:04.221Z,7.05
2019-03-27T00:18:32.112Z,6.97
2019-03-27T00:21:00.346Z,6.94
2019-03-27T00:23:28.098Z,6.91
2019-03-27T00:25:55.838Z,6.86
2019-03-27T00:28:24.603Z,6.80
2019-03-27T00:30:52.288Z,6.73
2019-03-27T00:33:20.463Z,6.68
2019-03-27T00:35:48.570Z,6.62
2019-03-27T00:38:16.316Z,6.50
2019-03-27T00:40:44.023Z,6.43
2019-03-27T00:43:11.801Z,6.36
2019-03-27T00:48:55.226Z,6.09
2019-03-27T00:51:22.958Z,5.96
2019-03-27T00:53:50.701Z,5.86
2019-03-27T00:56:59.020Z,5.80
2019-03-27T00:59:26.721Z,5.72
2019-03-27T01:01:54.481Z,5.63
2019-03-27T01:04:22.208Z,5.51
2019-03-27T01:10:10.968Z,5.37
2019-03-27T01:15:20.033Z,5.32
2019-03-27T01:17:47.638Z,5.24
2019-03-27T01:20:15.387Z,5.25
2019-03-27T01:22:43.121Z,5.32
2019-03-27T01:25:10.965Z,5.43
2019-03-27T01:27:39.038Z,5.43
2019-03-27T01:30:07.065Z,5.42
2019-03-27T01:32:34.814Z,5.47
2019-03-27T01:35:02.616Z,5.50
2019-03-27T01:37:31.496Z,5.27
2019-03-27T01:39:59.289Z,5.01
2019-03-27T01:42:27.044Z,4.81
2019-03-27T01:44:54.777Z,4.63
2019-03-27T01:47:22.403Z,4.53
2019-03-27T01:49:50.160Z,4.43
2019-03-27T01:52:17.803Z,4.35
2019-03-27T01:54:45.529Z,4.25
2019-03-27T01:57:13.372Z,4.18
2019-03-27T01:59:41.117Z,4.14
2019-03-27T02:02:08.873Z,4.13
2019-03-27T02:04:36.585Z,4.10
2019-03-27T02:07:04.419Z,4.08
2019-03-27T02:09:32.157Z,4.07
2019-03-27T02:12:00.259Z,4.05
2019-03-27T02:14:28.265Z,4.00
2019-03-27T02:16:55.886Z,3.96
2019-03-27T02:19:23.600Z,3.91
2019-03-27T02:21:51.409Z,3.87
2019-03-27T02:24:19.146Z,3.83
2019-03-27T02:26:47.273Z,3.87
2019-03-27T02:29:15.038Z,3.81
2019-03-27T02:31:42.740Z,3.77
2019-03-27T02:34:10.532Z,3.76
2019-03-27T02:36:38.302Z,3.71
2019-03-27T02:39:06.042Z,3.66
2019-03-27T02:41:33.914Z,3.79
2019-03-27T02:44:01.664Z,3.79
2019-03-27T02:46:29.376Z,3.84
2019-03-27T02:48:57.059Z,3.74
2019-03-27T02:51:24.777Z,3.60
2019-03-27T02:53:52.550Z,3.46
2019-03-27T02:56:20.371Z,3.34
2019-03-27T02:58:48.142Z,3.25
2019-03-27T03:01:15.825Z,3.17
2019-03-27T03:03:43.570Z,3.10
2019-03-27T03:06:11.339Z,3.03
2019-03-27T03:08:39.022Z,3.10
2019-03-27T03:11:06.763Z,3.12
2019-03-27T03:13:34.527Z,3.12
2019-03-27T03:16:02.449Z,3.07
2019-03-27T03:18:30.143Z,3.00
2019-03-27T03:20:57.838Z,2.96
2019-03-27T03:23:25.522Z,2.96
2019-03-27T03:25:53.227Z,2.95
2019-03-27T03:28:20.985Z,2.97
2019-03-27T03:30:48.826Z,2.92
2019-03-27T03:33:16.628Z,2.84
2019-03-27T03:35:45.290Z,2.81
2019-03-27T03:38:13.010Z,2.88
2019-03-27T03:40:41.087Z,2.94
2019-03-27T03:43:08.789Z,2.89
2019-03-27T03:45:36.485Z,2.97
2019-03-27T03:48:04.124Z,3.12
2019-03-27T03:50:42.760Z,3.10
2019-03-27T03:53:12.470Z,3.08
2019-03-27T03:55:40.906Z,3.13
2019-03-27T03:58:13.556Z,3.02
2019-03-27T04:00:41.738Z,2.99
2019-03-27T04:03:09.919Z,2.88
2019-03-27T04:05:37.549Z,2.84
2019-03-27T04:08:05.217Z,2.87
2019-03-27T04:10:33.009Z,2.75
2019-03-27T04:13:00.742Z,2.67
2019-03-27T04:15:28.845Z,2.71
2019-03-27T04:17:56.472Z,2.67
2019-03-27T04:20:24.404Z,2.74
2019-03-27T04:22:52.138Z,2.68
2019-03-27T04:25:20.348Z,2.59
2019-03-27T04:27:48.066Z,2.76
2019-03-27T04:30:15.974Z,2.81
2019-03-27T04:32:43.721Z,2.82
2019-03-27T04:35:11.661Z,2.71
2019-03-27T04:37:39.354Z,2.57
2019-03-27T04:40:07.504Z,2.46
2019-03-27T04:42:35.492Z,2.34
2019-03-27T04:45:03.354Z,2.26
2019-03-27T04:47:32.424Z,2.20
2019-03-27T04:50:00.494Z,2.28
2019-03-27T04:52:30.268Z,2.42
2019-03-27T04:54:57.932Z,2.38
2019-03-27T04:57:26.135Z,2.36
2019-03-27T04:59:53.871Z,2.26
2019-03-27T05:02:21.569Z,2.12
2019-03-27T05:04:49.491Z,2.03
2019-03-27T05:07:17.294Z,1.97
2019-03-27T05:09:45.391Z,1.93
2019-03-27T05:12:13.127Z,1.91
2019-03-27T05:14:40.873Z,1.97
2019-03-27T05:17:08.745Z,2.08
2019-03-27T05:19:36.796Z,2.17
2019-03-27T05:22:04.491Z,2.24
2019-03-27T05:24:32.249Z,2.29
2019-03-27T05:27:00.295Z,2.31
2019-03-27T05:29:28.068Z,2.32
2019-03-27T05:31:55.842Z,2.37
2019-03-27T05:34:23.624Z,2.48
2019-03-27T05:36:51.228Z,2.63
2019-03-27T05:39:19.294Z,2.80
2019-03-27T05:41:46.915Z,2.97
2019-03-27T05:44:15.036Z,3.18
2019-03-27T05:46:42.796Z,3.54
2019-03-27T05:49:10.662Z,3.79
2019-03-27T05:51:38.444Z,4.01
2019-03-27T05:54:06.154Z,4.51
2019-03-27T05:56:35.959Z,6.01
2019-03-27T05:59:03.808Z,7.79
2019-03-27T06:01:31.554Z,9.59
2019-03-27T06:03:59.512Z,11.09
2019-03-27T06:06:27.222Z,12.41
2019-03-27T06:08:54.953Z,13.52
2019-03-27T06:11:22.751Z,14.24
2019-03-27T06:13:50.500Z,15.23
2019-03-27T06:16:18.547Z,16.36
2019-03-27T06:18:46.269Z,17.53
2019-03-27T06:21:14.015Z,18.42
2019-03-27T06:23:41.609Z,19.14
2019-03-27T06:26:09.351Z,20.24
2019-03-27T06:28:37.445Z,21.06
2019-03-27T06:31:05.179Z,21.82
2019-03-27T06:33:32.959Z,22.53
2019-03-27T06:36:00.609Z,23.17
2019-03-27T06:38:28.215Z,23.81
2019-03-27T06:40:56.089Z,24.52
2019-03-27T06:43:23.819Z,25.19
2019-03-27T06:45:51.601Z,25.41
2019-03-27T06:48:26.062Z,26.02
2019-03-27T06:50:49.904Z,26.67
2019-03-27T06:53:17.601Z,27.42
2019-03-27T06:55:45.380Z,28.20
2019-03-27T06:58:13.480Z,28.71
2019-03-27T07:00:41.607Z,29.23
2019-03-27T07:03:09.300Z,29.11
2019-03-27T07:05:36.958Z,28.34
2019-03-27T07:08:04.732Z,28.12
2019-03-27T07:10:32.458Z,28.42
2019-03-27T07:13:00.348Z,29.51
2019-03-27T07:15:28.086Z,30.46
2019-03-27T07:17:55.941Z,31.48
2019-03-27T07:20:23.662Z,31.53
2019-03-27T07:22:51.410Z,31.76
2019-03-27T07:25:19.182Z,32.24
2019-03-27T07:27:46.913Z,32.41
2019-03-27T07:30:14.745Z,32.73
2019-03-27T07:32:42.848Z,33.35
2019-03-27T07:35:10.579Z,33.69
2019-03-27T07:37:38.280Z,34.00
2019-03-27T07:40:06.895Z,34.22
2019-03-27T07:42:34.647Z,34.51
2019-03-27T07:45:02.655Z,35.06
2019-03-27T07:47:30.276Z,35.81
2019-03-27T07:49:58.287Z,36.25
2019-03-27T07:52:26.395Z,36.68
2019-03-27T07:54:54.123Z,36.72
2019-03-27T07:57:21.828Z,36.96
2019-03-27T07:59:49.587Z,37.34
2019-03-27T08:02:17.616Z,37.66
2019-03-27T08:04:45.335Z,37.66
2019-03-27T08:07:25.911Z,37.61
2019-03-27T08:09:42.767Z,37.44
2019-03-27T08:12:10.531Z,37.83
2019-03-27T08:14:38.256Z,38.16
2019-03-27T08:17:05.997Z,38.43
2019-03-27T08:19:33.693Z,38.55
2019-03-27T08:22:01.787Z,39.18
2019-03-27T08:24:29.548Z,40.55
2019-03-27T08:26:57.276Z,39.67
2019-03-27T08:29:25.276Z,37.69
2019-03-27T08:31:53.046Z,36.59
2019-03-27T08:34:20.675Z,37.01
2019-03-27T08:36:48.698Z,36.56
2019-03-27T08:39:16.316Z,36.10
2019-03-27T08:41:44.430Z,35.89
2019-03-27T08:44:12.162Z,36.83
2019-03-27T08:46:40.174Z,38.13
2019-03-27T08:49:20.745Z,39.45
2019-03-27T08:51:37.970Z,40.01
2019-03-27T08:54:05.805Z,40.02
2019-03-27T08:56:33.551Z,40.58
2019-03-27T08:59:01.276Z,40.44
2019-03-27T09:01:29.404Z,38.31
2019-03-27T09:03:57.165Z,34.44
2019-03-27T09:06:33.499Z,30.24
2019-03-27T09:08:54.625Z,26.75
2019-03-27T09:11:22.543Z,24.52
2019-03-27T09:13:50.266Z,22.59
2019-03-27T09:16:18.139Z,21.12
2019-03-27T09:18:46.245Z,20.20
2019-03-27T09:21:14.073Z,19.01
2019-03-27T09:23:41.808Z,18.23
2019-03-27T09:26:09.440Z,17.62
2019-03-27T09:28:37.175Z,17.13
2019-03-27T09:31:05.060Z,16.95
2019-03-27T09:33:32.789Z,16.79
2019-03-27T09:36:00.450Z,16.70
2019-03-27T09:38:28.252Z,16.64
2019-03-27T09:40:55.883Z,16.53
2019-03-27T09:43:23.611Z,16.54
2019-03-27T09:45:51.348Z,16.70
2019-03-27T09:48:19.058Z,16.90
2019-03-27T09:50:47.080Z,16.97
2019-03-27T09:53:14.843Z,17.29
2019-03-27T09:55:42.937Z,17.75
2019-03-27T09:58:10.989Z,18.29
2019-03-27T10:01:09.935Z,18.40
2019-03-27T10:03:37.674Z,18.35
2019-03-27T10:06:05.417Z,18.23
2019-03-27T10:08:33.488Z,17.94
2019-03-27T10:11:01.195Z,17.50
2019-03-27T10:13:29.179Z,16.94
2019-03-27T10:15:57.015Z,16.59
2019-03-27T10:18:24.973Z,16.50
2019-03-27T10:20:52.621Z,16.50
2019-03-27T10:23:20.340Z,16.59
2019-03-27T10:25:48.089Z,16.60
2019-03-27T10:28:15.841Z,16.38
2019-03-27T10:30:43.607Z,16.21
2019-03-27T10:33:11.343Z,16.10
2019-03-27T10:35:39.346Z,15.94
2019-03-27T10:38:07.080Z,15.88
2019-03-27T10:40:34.814Z,15.81
2019-03-27T10:43:02.563Z,15.76
2019-03-27T10:45:30.337Z,15.79
2019-03-27T10:47:58.085Z,15.96
2019-03-27T10:50:25.801Z,16.28
2019-03-27T10:52:53.962Z,16.48
2019-03-27T10:55:21.687Z,16.63
2019-03-27T10:57:49.405Z,16.77
2019-03-27T11:00:17.187Z,16.82
2019-03-27T11:02:44.909Z,16.85
2019-03-27T11:05:12.761Z,16.90
2019-03-27T11:07:40.509Z,17.41
2019-03-27T11:10:08.951Z,17.80
2019-03-27T11:12:37.683Z,18.02
2019-03-27T11:15:05.884Z,18.28
2019-03-27T11:17:33.605Z,18.59
2019-03-27T11:20:01.411Z,18.65
2019-03-27T11:22:29.336Z,18.71
2019-03-27T11:24:59.920Z,18.67
2019-03-27T11:27:27.822Z,18.65
2019-03-27T11:29:55.611Z,18.71
2019-03-27T11:32:23.955Z,18.77
2019-03-27T11:34:51.702Z,18.82
2019-03-27T11:37:20.239Z,18.87
2019-03-27T11:39:48.005Z,18.90
2019-03-27T11:42:15.681Z,18.75
2019-03-27T11:44:44.103Z,18.63
2019-03-27T11:47:12.141Z,18.52
2019-03-27T11:49:40.257Z,18.52
2019-03-27T11:52:07.867Z,18.48
2019-03-27T11:54:35.609Z,18.43
2019-03-27T11:57:03.417Z,18.39
2019-03-27T11:59:31.510Z,18.39
2019-03-27T12:01:59.275Z,18.50
2019-03-27T12:04:26.989Z,18.47
2019-03-27T12:06:54.725Z,18.41
2019-03-27T12:09:22.854Z,18.29
2019-03-27T12:11:50.570Z,18.26
2019-03-27T12:14:18.715Z,18.30
2019-03-27T12:16:49.735Z,18.30
2019-03-27T12:19:16.502Z,18.33
2019-03-27T12:21:44.318Z,18.37
2019-03-27T12:24:12.068Z,18.35
2019-03-27T12:26:39.792Z,18.16
2019-03-27T12:29:07.480Z,17.95
2019-03-27T12:31:35.574Z,17.86
2019-03-27T12:34:03.244Z,18.01
2019-03-27T12:36:31.015Z,18.20
2019-03-27T12:38:58.763Z,18.33
2019-03-27T12:41:26.496Z,18.45
2019-03-27T12:43:54.262Z,18.57
2019-03-27T12:46:21.964Z,18.38
2019-03-27T12:48:49.901Z,18.05
2019-03-27T12:51:18.269Z,17.69
2019-03-27T12:53:46.023Z,17.55
2019-03-27T12:56:13.753Z,17.24
2019-03-27T12:58:41.559Z,16.90
2019-03-27T13:01:09.274Z,16.73
2019-03-27T13:03:37.016Z,16.44
2019-03-27T13:06:04.809Z,16.24
2019-03-27T13:08:32.527Z,16.11
2019-03-27T13:11:00.277Z,15.94
2019-03-27T13:13:28.107Z,15.84
2019-03-27T13:15:55.815Z,15.79
2019-03-27T13:18:23.532Z,15.77
2019-03-27T13:20:51.172Z,15.64
2019-03-27T13:23:19.333Z,15.62
2019-03-27T13:28:49.409Z,15.88
2019-03-27T13:31:24.719Z,16.13
2019-03-27T13:36:53.864Z,16.55
2019-03-27T13:39:21.554Z,16.84
2019-03-27T13:44:49.487Z,17.10
2019-03-27T13:47:17.097Z,17.09
2019-03-27T13:49:45.609Z,17.13
2019-03-27T13:52:13.398Z,17.02
2019-03-27T13:57:23.707Z,17.17
2019-03-27T13:59:51.558Z,17.26
2019-03-27T14:02:19.291Z,17.30
2019-03-27T14:04:47.062Z,17.35
2019-03-27T14:07:15.178Z,17.48
2019-03-27T14:09:42.916Z,17.60
2019-03-27T14:12:11.690Z,17.58
2019-03-27T14:14:49.564Z,17.46
2019-03-27T14:17:09.036Z,17.37
2019-03-27T14:19:36.769Z,17.20
2019-03-27T14:22:04.468Z,17.14
2019-03-27T14:24:32.517Z,17.00
2019-03-27T14:27:00.323Z,16.95
2019-03-27T14:29:28.057Z,16.91
2019-03-27T14:31:56.170Z,16.83
2019-03-27T14:34:23.821Z,16.76
2019-03-27T14:36:51.556Z,16.75
2019-03-27T14:39:19.181Z,16.74
2019-03-27T14:41:46.963Z,16.70
2019-03-27T14:44:14.762Z,16.69
2019-03-27T14:46:42.517Z,16.65
2019-03-27T14:49:10.283Z,16.48
2019-03-27T14:51:38.432Z,16.37
2019-03-27T14:54:06.210Z,16.16
2019-03-27T14:56:34.023Z,15.69
2019-03-27T14:59:01.755Z,15.29
2019-03-27T15:01:29.795Z,14.96
2019-03-27T15:03:58.564Z,14.85
2019-03-27T15:06:26.292Z,14.83
2019-03-27T15:08:54.424Z,14.81
2019-03-27T15:11:22.193Z,14.87
2019-03-27T15:13:49.903Z,14.89
2019-03-27T15:16:18.285Z,14.85
2019-03-27T15:18:46.170Z,14.95
2019-03-27T15:21:13.922Z,15.03
2019-03-27T15:23:41.656Z,15.05
2019-03-27T15:26:09.414Z,15.05
2019-03-27T15:28:37.154Z,14.94
2019-03-27T15:31:04.992Z,14.78
2019-03-27T15:33:32.768Z,14.61
2019-03-27T15:36:00.757Z,14.47
2019-03-27T15:38:28.668Z,14.31
2019-03-27T15:40:56.440Z,14.08
2019-03-27T15:43:24.171Z,13.85
2019-03-27T15:45:51.890Z,13.62
2019-03-27T15:48:19.649Z,13.39
2019-03-27T15:50:55.535Z,13.17
2019-03-27T15:53:17.244Z,12.93
2019-03-27T15:55:45.289Z,12.73
2019-03-27T15:58:13.046Z,12.68
2019-03-27T16:00:41.125Z,12.58
2019-03-27T16:03:08.891Z,12.48
2019-03-27T16:05:36.521Z,12.43
2019-03-27T16:08:04.254Z,12.43
2019-03-27T16:10:32.111Z,12.33
2019-03-27T16:12:59.984Z,12.31
2019-03-27T16:15:27.657Z,12.39
2019-03-27T16:17:55.338Z,12.40
2019-03-27T16:20:23.131Z,12.48
2019-03-27T16:22:51.379Z,12.39
2019-03-27T16:25:19.177Z,12.32
2019-03-27T16:27:47.471Z,12.29
2019-03-27T16:30:17.168Z,12.31
2019-03-27T16:32:45.438Z,12.37
2019-03-27T16:35:13.832Z,12.23
2019-03-27T16:37:41.577Z,12.09
2019-03-27T16:40:09.876Z,11.96
2019-03-27T16:42:38.021Z,11.85
2019-03-27T16:45:06.358Z,11.72
2019-03-27T16:47:34.252Z,11.62
2019-03-27T16:50:01.996Z,11.52
2019-03-27T16:52:29.856Z,11.38
2019-03-27T16:54:57.532Z,11.27
2019-03-27T16:57:25.248Z,11.18
2019-03-27T16:59:53.010Z,11.06
2019-03-27T17:02:20.814Z,10.95
2019-03-27T17:04:48.540Z,10.85
2019-03-27T17:07:16.352Z,10.77
2019-03-27T17:09:44.204Z,10.73
2019-03-27T17:12:12.254Z,10.65
2019-03-27T17:14:40.001Z,10.64
2019-03-27T17:17:08.027Z,10.58
2019-03-27T17:19:35.774Z,10.49
2019-03-27T17:22:03.542Z,10.37
2019-03-27T17:24:31.334Z,10.36
2019-03-27T17:26:59.097Z,10.30
2019-03-27T17:29:27.497Z,10.20
2019-03-27T17:31:55.213Z,10.09
2019-03-27T17:34:22.927Z,10.02
2019-03-27T17:36:50.641Z,9.91
2019-03-27T17:39:18.906Z,9.76
2019-03-27T17:41:46.602Z,9.65
2019-03-27T17:44:14.479Z,9.53
2019-03-27T17:46:42.597Z,9.45
2019-03-27T17:49:10.321Z,9.38
2019-03-27T17:51:38.313Z,9.24
2019-03-27T17:54:19.608Z,9.15
2019-03-27T17:56:36.125Z,9.01
2019-03-27T17:59:04.023Z,8.89
2019-03-27T18:01:31.839Z,8.79
2019-03-27T18:03:59.595Z,8.76
2019-03-27T18:06:27.319Z,8.74
2019-03-27T18:08:55.081Z,8.74
2019-03-27T18:11:22.830Z,8.69
2019-03-27T18:13:50.623Z,8.58
2019-03-27T18:16:18.703Z,8.50
2019-03-27T18:18:46.523Z,8.40
2019-03-27T18:21:14.472Z,8.33
2019-03-27T18:23:46.243Z,8.27
2019-03-27T18:26:14.116Z,8.24
2019-03-27T18:28:41.933Z,8.16
2019-03-27T18:31:09.869Z,8.06
2019-03-27T18:33:37.591Z,7.94
2019-03-27T18:36:05.281Z,7.84
2019-03-27T18:38:33.080Z,7.77
2019-03-27T18:41:01.077Z,7.69
2019-03-27T18:43:29.288Z,7.59
2019-03-27T18:45:56.997Z,7.50
2019-03-27T18:48:25.086Z,7.46
2019-03-27T18:50:52.835Z,7.38
2019-03-27T18:53:20.602Z,7.37
2019-03-27T18:55:48.482Z,7.42
2019-03-27T18:58:16.205Z,7.50
2019-03-27T19:00:44.122Z,7.47
2019-03-27T19:03:11.938Z,7.42
2019-03-27T19:05:39.591Z,7.37
2019-03-27T19:08:07.345Z,7.29
2019-03-27T19:10:35.358Z,7.26
2019-03-27T19:13:03.132Z,7.24
2019-03-27T19:15:30.857Z,7.28
2019-03-27T19:17:58.467Z,7.34
2019-03-27T19:20:26.683Z,7.38
2019-03-27T19:22:54.463Z,7.45
2019-03-27T19:25:22.683Z,7.45
2019-03-27T19:27:50.540Z,7.33
2019-03-27T19:30:18.681Z,7.21
2019-03-27T19:32:46.361Z,7.15
2019-03-27T19:35:14.506Z,7.11
2019-03-27T19:37:42.281Z,7.05
2019-03-27T19:40:10.478Z,7.02
2019-03-27T19:42:38.224Z,6.97
2019-03-27T19:45:07.153Z,6.97
2019-03-27T19:47:34.850Z,7.00
2019-03-27T19:50:03.183Z,6.98
2019-03-27T19:52:30.839Z,6.96
2019-03-27T19:54:58.608Z,6.89
2019-03-27T19:57:26.680Z,6.83
2019-03-27T19:59:57.669Z,6.76
2019-03-27T20:02:25.576Z,6.75
2019-03-27T20:04:53.510Z,6.74
2019-03-27T20:07:21.389Z,6.67
2019-03-27T20:09:49.187Z,6.65
2019-03-27T20:12:17.079Z,6.63
2019-03-27T20:14:44.917Z,6.55
2019-03-27T20:17:12.631Z,6.47
2019-03-27T20:19:40.445Z,6.45
2019-03-27T20:22:08.249Z,6.52
2019-03-27T20:24:41.232Z,6.57
2019-03-27T20:27:06.478Z,6.49
2019-03-27T20:29:34.324Z,6.42
2019-03-27T20:32:02.371Z,6.30
2019-03-27T20:34:30.106Z,6.23
2019-03-27T20:36:57.955Z,6.18
2019-03-27T20:39:25.614Z,6.15
2019-03-27T20:41:53.427Z,6.08
2019-03-27T20:44:21.320Z,6.03
2019-03-27T20:46:49.200Z,5.98
2019-03-27T20:49:17.048Z,6.06
2019-03-27T20:51:44.848Z,6.03
2019-03-27T20:54:12.650Z,5.98
2019-03-27T20:56:40.448Z,5.99
2019-03-27T20:59:08.596Z,5.87
2019-03-27T21:01:36.318Z,5.83
2019-03-27T21:04:04.095Z,5.80
2019-03-27T21:06:32.282Z,5.71
2019-03-27T21:09:00.055Z,5.63
2019-03-27T21:11:27.854Z,5.56
2019-03-27T21:13:55.620Z,5.49
2019-03-27T21:16:23.699Z,5.46
2019-03-27T21:18:51.416Z,5.46
2019-03-27T21:21:19.251Z,5.42
2019-03-27T21:23:47.048Z,5.38
2019-03-27T21:26:14.674Z,5.37
2019-03-27T21:28:42.461Z,5.31
2019-03-27T21:31:10.581Z,5.25
2019-03-27T21:33:38.357Z,5.16
2019-03-27T21:36:06.130Z,5.13
2019-03-27T21:38:33.845Z,5.10
2019-03-27T21:41:01.597Z,5.05
2019-03-27T21:43:29.363Z,5.05
2019-03-27T21:45:57.051Z,5.10
2019-03-27T21:48:24.840Z,5.08
2019-03-27T21:50:52.833Z,5.05
2019-03-27T21:53:20.581Z,5.16
2019-03-27T21:55:48.307Z,5.18
2019-03-27T21:58:16.089Z,5.13
2019-03-27T22:00:43.805Z,5.03
2019-03-27T22:03:11.552Z,4.95
2019-03-27T22:05:39.194Z,4.96
2019-03-27T22:08:07.578Z,4.90
2019-03-27T22:10:35.560Z,4.84
2019-03-27T22:13:03.347Z,4.85
2019-03-27T22:15:31.502Z,4.78
2019-03-27T22:17:59.152Z,4.74
2019-03-27T22:20:27.274Z,4.66
2019-03-27T22:22:54.954Z,4.62
2019-03-27T22:25:35.408Z,4.58
2019-03-27T22:27:52.657Z,4.53
2019-03-27T22:30:20.352Z,4.59
2019-03-27T22:32:48.081Z,4.53
2019-03-27T22:35:15.813Z,4.53
2019-03-27T22:37:43.566Z,4.52
2019-03-27T22:40:11.314Z,4.59
2019-03-27T22:42:39.036Z,4.58
2019-03-27T22:45:06.990Z,4.48
2019-03-27T22:47:34.725Z,4.41
2019-03-27T22:50:02.989Z,4.36
2019-03-27T22:52:31.101Z,4.34
2019-03-27T22:54:58.887Z,4.37
2019-03-27T22:57:26.698Z,4.41
2019-03-27T22:59:54.358Z,4.39
2019-03-27T23:02:22.182Z,4.34
2019-03-27T23:04:52.098Z,4.28
2019-03-27T23:07:19.751Z,4.23
2019-03-27T23:09:47.468Z,4.26
2019-03-27T23:12:15.260Z,4.30
2019-03-27T23:14:42.998Z,4.28
2019-03-27T23:17:10.619Z,4.28
2019-03-27T23:19:38.743Z,4.23
2019-03-27T23:22:06.592Z,4.14
2019-03-27T23:24:34.304Z,4.11
2019-03-27T23:27:02.067Z,4.15
2019-03-27T23:29:29.819Z,4.10
2019-03-27T23:31:57.559Z,4.03
2019-03-27T23:34:25.305Z,4.00
2019-03-27T23:36:52.958Z,3.96
2019-03-27T23:39:20.674Z,3.92
2019-03-27T23:41:48.334Z,3.92
2019-03-27T23:44:16.088Z,3.92
2019-03-27T23:46:43.817Z,3.90
2019-03-27T23:49:12.189Z,3.86
2019-03-27T23:51:40.321Z,3.84
2019-03-27T23:54:08.184Z,3.82
2019-03-27T23:56:35.922Z,3.76
2019-03-27T23:59:03.696Z,3.71
